KHOU/HOU METAR and TAF weather

Enter ICAO airport designator
Station Type Date Time Source
KHOU METAR 2021/03/01 02:53 UTC NOAA

KHOU 010253Z 16010KT 7SM OVC007 23/21 A2990 RMK AO2 SLP131 T02280206 53016


Station Type Date Time Source
KHOU Decoded METAR 2021/03/01 02:53 UTC NOAA

HOUSTON HOBBY AIRPORT, TX, United States (KHOU) 29-38N 095-17W 36M
Feb 28, 2021 - 09:53 PM EST / 2021.03.01 0253 UTC
Wind: from the SSE (160 degrees) at 12 MPH (10 KT):0
Visibility: 7 mile(s):0
Sky conditions: overcast
Temperature: 73.0 F (22.8 C)
Dew Point: 69.1 F (20.6 C)
Relative Humidity: 87%
Pressure (altimeter): 29.9 in. Hg (1012 hPa)
Pressure tendency: 0.05 inches (1.6 hPa) higher than three hours ago
ob: KHOU 010253Z 16010KT 7SM OVC007 23/21 A2990 RMK AO2 SLP131 T02280206 53016
cycle: 3

Station Type Date Time Source
KHOU TAF 2021/03/01 03:33 UTC NOAA

TAF
AMD KHOU 010231Z 0103/0124 16009KT P6SM OVC009
FM010600 12006KT 3SM BR OVC005
FM011000 17005KT 3SM BR VCSH OVC005
FM011600 01009KT 4SM -RA BR OVC005
FM012000 01012KT 3SM -RA BR OVC007

Example: see airport list